sensor_id;sensor_type;location;lat;lon;timestamp;pressure;altitude;pressure_sealevel;temperature;humidity
73024;BME280;61199;47.526;8.538;2023-04-30T00:01:20;96575.31;;;15.92;59.20
73024;BME280;61199;47.526;8.538;2023-04-30T00:03:47;96567.56;;;15.82;59.41
73024;BME280;61199;47.526;8.538;2023-04-30T00:06:13;96576.13;;;15.76;59.71
73024;BME280;61199;47.526;8.538;2023-04-30T00:08:39;96569.19;;;15.75;59.27
73024;BME280;61199;47.526;8.538;2023-04-30T00:11:06;96570.81;;;15.68;59.76
73024;BME280;61199;47.526;8.538;2023-04-30T00:13:32;96564.13;;;15.40;61.25
73024;BME280;61199;47.526;8.538;2023-04-30T00:15:59;96557.91;;;15.57;60.00
73024;BME280;61199;47.526;8.538;2023-04-30T00:18:26;96554.78;;;15.54;60.37
73024;BME280;61199;47.526;8.538;2023-04-30T00:20:52;96551.34;;;15.61;60.03
73024;BME280;61199;47.526;8.538;2023-04-30T00:23:20;96546.50;;;15.41;60.79
73024;BME280;61199;47.526;8.538;2023-04-30T00:25:46;96544.88;;;15.14;61.58
73024;BME280;61199;47.526;8.538;2023-04-30T00:28:12;96549.78;;;15.01;62.19
73024;BME280;61199;47.526;8.538;2023-04-30T00:30:39;96549.50;;;15.12;61.98
73024;BME280;61199;47.526;8.538;2023-04-30T00:33:05;96549.78;;;15.01;62.32
73024;BME280;61199;47.526;8.538;2023-04-30T00:35:32;96549.09;;;14.91;62.81
73024;BME280;61199;47.526;8.538;2023-04-30T00:37:58;96545.94;;;14.88;62.94
73024;BME280;61199;47.526;8.538;2023-04-30T00:40:24;96545.75;;;14.81;62.85
73024;BME280;61199;47.526;8.538;2023-04-30T00:42:52;96538.13;;;14.78;62.92
73024;BME280;61199;47.526;8.538;2023-04-30T00:45:21;96533.25;;;14.58;63.69
73024;BME280;61199;47.526;8.538;2023-04-30T00:47:48;96544.97;;;14.64;63.36
73024;BME280;61199;47.526;8.538;2023-04-30T00:50:15;96540.75;;;14.71;63.06
73024;BME280;61199;47.526;8.538;2023-04-30T00:52:42;96538.78;;;14.73;63.17
73024;BME280;61199;47.526;8.538;2023-04-30T00:55:10;96534.44;;;14.64;62.98
73024;BME280;61199;47.526;8.538;2023-04-30T00:57:37;96539.09;;;14.70;63.30
73024;BME280;61199;47.526;8.538;2023-04-30T01:00:06;96535.41;;;14.63;63.41
73024;BME280;61199;47.526;8.538;2023-04-30T01:02:37;96535.38;;;14.55;63.65
73024;BME280;61199;47.526;8.538;2023-04-30T01:05:04;96532.03;;;14.45;63.98
73024;BME280;61199;47.526;8.538;2023-04-30T01:07:30;96528.72;;;14.43;64.06
73024;BME280;61199;47.526;8.538;2023-04-30T01:09:57;96527.00;;;14.59;63.58
73024;BME280;61199;47.526;8.538;2023-04-30T01:12:28;96539.66;;;14.56;63.67
73024;BME280;61199;47.526;8.538;2023-04-30T01:15:13;96529.63;;;14.59;63.48
73024;BME280;61199;47.526;8.538;2023-04-30T01:20:27;96530.72;;;14.49;63.46
73024;BME280;61199;47.526;8.538;2023-04-30T01:25:52;96531.31;;;14.68;63.11
73024;BME280;61199;47.526;8.538;2023-04-30T01:28:24;96521.31;;;14.72;62.79
73024;BME280;61199;47.526;8.538;2023-04-30T01:30:51;96526.16;;;14.59;63.26
73024;BME280;61199;47.526;8.538;2023-04-30T01:33:18;96527.84;;;14.68;63.13
73024;BME280;61199;47.526;8.538;2023-04-30T01:36:17;96522.84;;;14.57;63.28
73024;BME280;61199;47.526;8.538;2023-04-30T01:39:19;96529.31;;;14.62;63.06
73024;BME280;61199;47.526;8.538;2023-04-30T01:44:42;96530.38;;;14.77;62.93
73024;BME280;61199;47.526;8.538;2023-04-30T01:50:33;96532.06;;;14.53;63.21
73024;BME280;61199;47.526;8.538;2023-04-30T01:53:06;96533.31;;;14.74;62.71
73024;BME280;61199;47.526;8.538;2023-04-30T01:55:42;96525.13;;;14.77;62.71
73024;BME280;61199;47.526;8.538;2023-04-30T01:58:11;96526.75;;;14.78;62.36
73024;BME280;61199;47.526;8.538;2023-04-30T02:00:38;96527.84;;;14.68;62.96
73024;BME280;61199;47.526;8.538;2023-04-30T02:03:04;96528.88;;;14.74;62.75
73024;BME280;61199;47.526;8.538;2023-04-30T02:05:31;96533.22;;;14.83;62.70
73024;BME280;61199;47.526;8.538;2023-04-30T02:07:57;96527.97;;;14.58;62.97
73024;BME280;61199;47.526;8.538;2023-04-30T02:10:25;96525.03;;;14.61;63.56
73024;BME280;61199;47.526;8.538;2023-04-30T02:12:52;96525.91;;;14.77;62.89
73024;BME280;61199;47.526;8.538;2023-04-30T02:15:19;96512.97;;;14.92;62.55
73024;BME280;61199;47.526;8.538;2023-04-30T02:17:45;96519.59;;;14.96;62.41
73024;BME280;61199;47.526;8.538;2023-04-30T02:20:11;96519.41;;;14.89;62.59
73024;BME280;61199;47.526;8.538;2023-04-30T02:22:38;96514.78;;;14.91;62.36
73024;BME280;61199;47.526;8.538;2023-04-30T02:25:05;96518.19;;;14.76;62.96
73024;BME280;61199;47.526;8.538;2023-04-30T02:27:32;96510.09;;;14.77;62.91
73024;BME280;61199;47.526;8.538;2023-04-30T02:29:59;96515.56;;;14.76;63.07
73024;BME280;61199;47.526;8.538;2023-04-30T02:32:26;96520.06;;;14.91;62.68
73024;BME280;61199;47.526;8.538;2023-04-30T02:34:52;96516.41;;;14.84;63.23
73024;BME280;61199;47.526;8.538;2023-04-30T02:37:18;96516.41;;;14.84;62.67
73024;BME280;61199;47.526;8.538;2023-04-30T02:39:45;96518.00;;;14.77;62.83
73024;BME280;61199;47.526;8.538;2023-04-30T02:42:11;96520.94;;;14.67;63.37
73024;BME280;61199;47.526;8.538;2023-04-30T02:44:38;96522.72;;;14.58;63.83
73024;BME280;61199;47.526;8.538;2023-04-30T02:47:04;96515.59;;;14.59;63.76
73024;BME280;61199;47.526;8.538;2023-04-30T02:49:30;96517.47;;;14.66;63.32
73024;BME280;61199;47.526;8.538;2023-04-30T02:51:57;96526.88;;;14.68;63.11
73024;BME280;61199;47.526;8.538;2023-04-30T02:54:23;96523.28;;;14.70;63.44
73024;BME280;61199;47.526;8.538;2023-04-30T02:56:49;96519.69;;;14.86;62.52
73024;BME280;61199;47.526;8.538;2023-04-30T02:59:16;96518.00;;;14.77;63.34
73024;BME280;61199;47.526;8.538;2023-04-30T03:01:42;96516.41;;;14.84;62.85
73024;BME280;61199;47.526;8.538;2023-04-30T03:04:09;96516.72;;;14.81;62.85
73024;BME280;61199;47.526;8.538;2023-04-30T03:06:35;96503.88;;;14.86;62.73
73024;BME280;61199;47.526;8.538;2023-04-30T03:09:02;96511.47;;;14.81;63.35
73024;BME280;61199;47.526;8.538;2023-04-30T03:11:28;96513.06;;;14.74;63.15
73024;BME280;61199;47.526;8.538;2023-04-30T03:13:55;96507.44;;;14.70;63.34
73024;BME280;61199;47.526;8.538;2023-04-30T03:16:21;96506.28;;;14.72;63.61
73024;BME280;61199;47.526;8.538;2023-04-30T03:18:48;96517.47;;;14.66;63.57
73024;BME280;61199;47.526;8.538;2023-04-30T03:21:14;96517.59;;;14.57;63.72
73024;BME280;61199;47.526;8.538;2023-04-30T03:23:41;96506.06;;;14.58;63.78
73024;BME280;61199;47.526;8.538;2023-04-30T03:26:07;96506.69;;;14.52;64.04
73024;BME280;61199;47.526;8.538;2023-04-30T03:28:34;96512.31;;;14.57;64.04
73024;BME280;61199;47.526;8.538;2023-04-30T03:31:01;96510.66;;;14.56;64.10
73024;BME280;61199;47.526;8.538;2023-04-30T03:33:31;96508.97;;;14.47;64.42
73024;BME280;61199;47.526;8.538;2023-04-30T03:35:58;96506.69;;;14.52;63.94
73024;BME280;61199;47.526;8.538;2023-04-30T03:38:24;96503.75;;;14.55;64.14
73024;BME280;61199;47.526;8.538;2023-04-30T03:40:51;96498.50;;;14.63;63.90
73024;BME280;61199;47.526;8.538;2023-04-30T03:43:17;96505.78;;;14.68;63.78
73024;BME280;61199;47.526;8.538;2023-04-30T03:45:44;96506.69;;;14.52;64.00
73024;BME280;61199;47.526;8.538;2023-04-30T03:48:10;96501.16;;;14.37;64.44
73024;BME280;61199;47.526;8.538;2023-04-30T03:50:37;96504.94;;;14.35;64.89
73024;BME280;61199;47.526;8.538;2023-04-30T03:53:03;96509.91;;;14.38;64.28
73024;BME280;61199;47.526;8.538;2023-04-30T03:55:30;96508.84;;;14.31;64.89
73024;BME280;61199;47.526;8.538;2023-04-30T03:57:56;96507.16;;;14.22;65.11
73024;BME280;61199;47.526;8.538;2023-04-30T04:00:23;96514.75;;;14.07;65.68
73024;BME280;61199;47.526;8.538;2023-04-30T04:02:49;96505.59;;;14.11;65.45
73024;BME280;61199;47.526;8.538;2023-04-30T04:05:16;96503.09;;;14.10;66.01
73024;BME280;61199;47.526;8.538;2023-04-30T04:07:42;96503.91;;;14.10;65.47
73024;BME280;61199;47.526;8.538;2023-04-30T04:10:09;96510.44;;;14.24;65.12
73024;BME280;61199;47.526;8.538;2023-04-30T04:12:36;96508.19;;;14.29;65.33
73024;BME280;61199;47.526;8.538;2023-04-30T04:15:03;96510.00;;;14.11;66.13
73024;BME280;61199;47.526;8.538;2023-04-30T04:17:29;96518.50;;;14.05;65.94
73024;BME280;61199;47.526;8.538;2023-04-30T04:19:56;96524.97;;;14.10;66.23
73024;BME280;61199;47.526;8.538;2023-04-30T04:22:22;96524.81;;;14.12;65.96
73024;BME280;61199;47.526;8.538;2023-04-30T04:24:49;96516.94;;;14.12;65.95
73024;BME280;61199;47.526;8.538;2023-04-30T04:27:16;96528.53;;;14.19;65.60
73024;BME280;61199;47.526;8.538;2023-04-30T04:29:43;96521.31;;;14.21;65.51
73024;BME280;61199;47.526;8.538;2023-04-30T04:32:09;96519.84;;;14.26;65.31
73024;BME280;61199;47.526;8.538;2023-04-30T04:34:36;96524.81;;;14.12;65.72
73024;BME280;61199;47.526;8.538;2023-04-30T04:37:03;96519.66;;;14.20;65.42
73024;BME280;61199;47.526;8.538;2023-04-30T04:39:30;96523.41;;;14.17;65.47
73024;BME280;61199;47.526;8.538;2023-04-30T04:41:56;96527.94;;;14.25;65.54
73024;BME280;61199;47.526;8.538;2023-04-30T04:44:23;96529.56;;;14.08;66.05
73024;BME280;61199;47.526;8.538;2023-04-30T04:46:49;96527.84;;;13.99;66.30
73024;BME280;61199;47.526;8.538;2023-04-30T04:49:19;96525.75;;;14.03;66.21
73024;BME280;61199;47.526;8.538;2023-04-30T04:51:46;96531.34;;;14.00;66.18
73024;BME280;61199;47.526;8.538;2023-04-30T04:54:12;96523.75;;;13.97;66.26
73024;BME280;61199;47.526;8.538;2023-04-30T04:56:38;96537.59;;;13.99;66.32
73024;BME280;61199;47.526;8.538;2023-04-30T04:59:05;96533.31;;;13.98;66.37
73024;BME280;61199;47.526;8.538;2023-04-30T05:01:31;96532.47;;;13.97;66.23
73024;BME280;61199;47.526;8.538;2023-04-30T05:03:58;96532.47;;;13.80;66.71
73024;BME280;61199;47.526;8.538;2023-04-30T05:06:24;96530.44;;;13.74;66.77
73024;BME280;61199;47.526;8.538;2023-04-30T05:08:52;96531.56;;;13.89;66.43
73024;BME280;61199;47.526;8.538;2023-04-30T05:11:19;96527.66;;;13.93;66.48
73024;BME280;61199;47.526;8.538;2023-04-30T05:13:47;96527.66;;;13.93;66.48
73024;BME280;61199;47.526;8.538;2023-04-30T05:16:13;96530.34;;;14.01;66.08
73024;BME280;61199;47.526;8.538;2023-04-30T05:18:40;96532.16;;;14.00;66.14
73024;BME280;61199;47.526;8.538;2023-04-30T05:21:06;96527.34;;;13.96;66.75
73024;BME280;61199;47.526;8.538;2023-04-30T05:23:32;96533.50;;;14.22;65.57
73024;BME280;61199;47.526;8.538;2023-04-30T05:25:59;96528.28;;;14.30;65.06
73024;BME280;61199;47.526;8.538;2023-04-30T05:28:25;96528.44;;;14.28;64.75
73024;BME280;61199;47.526;8.538;2023-04-30T05:30:51;96529.59;;;14.26;65.30
73024;BME280;61199;47.526;8.538;2023-04-30T05:33:18;96520.78;;;14.17;65.54
73024;BME280;61199;47.526;8.538;2023-04-30T05:35:44;96524.88;;;14.37;66.02
73024;BME280;61199;47.526;8.538;2023-04-30T05:38:11;96531.03;;;14.46;65.43
73024;BME280;61199;47.526;8.538;2023-04-30T05:40:37;96521.91;;;14.66;65.48
73024;BME280;61199;47.526;8.538;2023-04-30T05:43:04;96525.31;;;14.83;64.02
73024;BME280;61199;47.526;8.538;2023-04-30T05:45:30;96512.19;;;14.99;63.10
73024;BME280;61199;47.526;8.538;2023-04-30T05:47:56;96510.34;;;15.00;63.14
73024;BME280;61199;47.526;8.538;2023-04-30T05:50:23;96519.38;;;14.81;63.01
73024;BME280;61199;47.526;8.538;2023-04-30T05:52:49;96519.69;;;14.86;63.12
73024;BME280;61199;47.526;8.538;2023-04-30T05:55:16;96520.34;;;14.80;63.28
73024;BME280;61199;47.526;8.538;2023-04-30T05:57:42;96528.97;;;14.57;64.12
73024;BME280;61199;47.526;8.538;2023-04-30T06:00:09;96522.91;;;14.65;63.77
73024;BME280;61199;47.526;8.538;2023-04-30T06:02:36;96529.13;;;14.56;64.70
73024;BME280;61199;47.526;8.538;2023-04-30T06:05:02;96518.78;;;14.37;64.73
73024;BME280;61199;47.526;8.538;2023-04-30T06:07:29;96517.72;;;14.47;64.31
73024;BME280;61199;47.526;8.538;2023-04-30T06:09:55;96517.72;;;14.47;64.76
73024;BME280;61199;47.526;8.538;2023-04-30T06:12:22;96520.34;;;14.47;64.94
73024;BME280;61199;47.526;8.538;2023-04-30T06:14:48;96512.47;;;14.30;65.66
73024;BME280;61199;47.526;8.538;2023-04-30T06:17:15;96506.03;;;14.24;65.32
73024;BME280;61199;47.526;8.538;2023-04-30T06:19:41;96507.53;;;14.27;65.49
73024;BME280;61199;47.526;8.538;2023-04-30T06:22:08;96507.47;;;14.19;65.96
73024;BME280;61199;47.526;8.538;2023-04-30T06:24:34;96501.97;;;13.95;67.28
73024;BME280;61199;47.526;8.538;2023-04-30T06:27:01;96504.59;;;13.95;66.56
73024;BME280;61199;47.526;8.538;2023-04-30T06:29:28;96509.75;;;13.96;66.66
73024;BME280;61199;47.526;8.538;2023-04-30T06:31:54;96507.03;;;14.06;66.13
73024;BME280;61199;47.526;8.538;2023-04-30T06:34:21;96510.31;;;14.08;66.53
73024;BME280;61199;47.526;8.538;2023-04-30T06:36:47;96511.31;;;14.07;66.02
73024;BME280;61199;47.526;8.538;2023-04-30T06:39:15;96514.66;;;14.17;66.11
73024;BME280;61199;47.526;8.538;2023-04-30T06:41:42;96512.72;;;14.19;65.64
73024;BME280;61199;47.526;8.538;2023-04-30T06:44:08;96518.22;;;14.08;66.19
73024;BME280;61199;47.526;8.538;2023-04-30T06:46:34;96517.53;;;14.23;66.07
73024;BME280;61199;47.526;8.538;2023-04-30T06:49:01;96517.69;;;14.22;65.96
73024;BME280;61199;47.526;8.538;2023-04-30T06:51:27;96516.41;;;14.26;65.79
73024;BME280;61199;47.526;8.538;2023-04-30T06:53:54;96516.56;;;14.24;65.51
73024;BME280;61199;47.526;8.538;2023-04-30T06:56:21;96513.97;;;14.32;65.59
73024;BME280;61199;47.526;8.538;2023-04-30T06:58:47;96513.78;;;14.26;65.92
73024;BME280;61199;47.526;8.538;2023-04-30T07:01:15;96513.97;;;14.32;65.77
73024;BME280;61199;47.526;8.538;2023-04-30T07:03:42;96517.38;;;14.50;65.07
73024;BME280;61199;47.526;8.538;2023-04-30T07:06:09;96510.19;;;14.60;64.83
73024;BME280;61199;47.526;8.538;2023-04-30T07:08:36;96518.66;;;14.72;64.54
73024;BME280;61199;47.526;8.538;2023-04-30T07:11:02;96515.09;;;14.80;64.57
73024;BME280;61199;47.526;8.538;2023-04-30T07:13:29;96515.88;;;14.81;63.70
73024;BME280;61199;47.526;8.538;2023-04-30T07:15:55;96513.81;;;14.92;63.40
73024;BME280;61199;47.526;8.538;2023-04-30T07:18:21;96502.63;;;14.98;62.87
73024;BME280;61199;47.526;8.538;2023-04-30T07:20:48;96505.94;;;15.00;62.62
73024;BME280;61199;47.526;8.538;2023-04-30T07:23:14;96496.03;;;15.02;62.47
73024;BME280;61199;47.526;8.538;2023-04-30T07:25:41;96498.88;;;15.17;62.77
73024;BME280;61199;47.526;8.538;2023-04-30T07:28:07;96506.63;;;15.10;62.53
73024;BME280;61199;47.526;8.538;2023-04-30T07:30:34;96507.41;;;14.95;63.14
73024;BME280;61199;47.526;8.538;2023-04-30T07:33:00;96507.44;;;15.03;63.14
73024;BME280;61199;47.526;8.538;2023-04-30T07:35:27;96503.94;;;15.02;63.40
73024;BME280;61199;47.526;8.538;2023-04-30T07:37:53;96504.16;;;15.17;63.17
73024;BME280;61199;47.526;8.538;2023-04-30T07:40:19;96499.75;;;15.25;62.30
73024;BME280;61199;47.526;8.538;2023-04-30T07:43:01;96498.72;;;15.18;62.55
73024;BME280;61199;47.526;8.538;2023-04-30T07:45:27;96495.03;;;15.03;62.80
73024;BME280;61199;47.526;8.538;2023-04-30T07:47:54;96497.34;;;14.98;63.58
73024;BME280;61199;47.526;8.538;2023-04-30T07:50:20;96503.00;;;15.11;62.37
73024;BME280;61199;47.526;8.538;2023-04-30T07:52:48;96503.50;;;15.15;62.39
73024;BME280;61199;47.526;8.538;2023-04-30T07:55:15;96504.53;;;15.30;62.59
73024;BME280;61199;47.526;8.538;2023-04-30T07:57:41;96503.41;;;15.32;62.05
73024;BME280;61199;47.526;8.538;2023-04-30T08:00:08;96509.22;;;15.44;62.05
73024;BME280;61199;47.526;8.538;2023-04-30T08:02:34;96502.16;;;15.52;61.51
73024;BME280;61199;47.526;8.538;2023-04-30T08:05:02;96504.63;;;15.62;61.62
73024;BME280;61199;47.526;8.538;2023-04-30T08:07:29;96496.88;;;15.68;61.32
73024;BME280;61199;47.526;8.538;2023-04-30T08:09:55;96509.78;;;15.79;60.77
73024;BME280;61199;47.526;8.538;2023-04-30T08:12:22;96501.84;;;15.71;61.34
73024;BME280;61199;47.526;8.538;2023-04-30T08:14:48;96507.44;;;15.52;61.24
73024;BME280;61199;47.526;8.538;2023-04-30T08:17:15;96504.47;;;15.71;61.20
73024;BME280;61199;47.526;8.538;2023-04-30T08:19:41;96503.97;;;16.00;61.45
73024;BME280;61199;47.526;8.538;2023-04-30T08:22:07;96502.16;;;16.16;60.13
73024;BME280;61199;47.526;8.538;2023-04-30T08:24:34;96501.97;;;16.26;60.35
73024;BME280;61199;47.526;8.538;2023-04-30T08:27:00;96497.53;;;16.34;59.66
73024;BME280;61199;47.526;8.538;2023-04-30T08:29:29;96501.81;;;16.35;60.30
73024;BME280;61199;47.526;8.538;2023-04-30T08:32:01;96499.50;;;16.48;59.72
73024;BME280;61199;47.526;8.538;2023-04-30T08:34:29;96498.19;;;16.28;59.26
73024;BME280;61199;47.526;8.538;2023-04-30T08:36:55;96500.34;;;16.49;59.07
73024;BME280;61199;47.526;8.538;2023-04-30T08:39:21;96501.16;;;16.41;59.38
73024;BME280;61199;47.526;8.538;2023-04-30T08:41:53;96493.34;;;16.56;59.42
73024;BME280;61199;47.526;8.538;2023-04-30T08:44:22;96495.53;;;16.52;59.66
73024;BME280;61199;47.526;8.538;2023-04-30T08:46:53;96494.31;;;16.71;58.83
73024;BME280;61199;47.526;8.538;2023-04-30T08:49:23;96504.63;;;16.34;59.72
73024;BME280;61199;47.526;8.538;2023-04-30T08:51:51;96501.16;;;16.25;59.23
73024;BME280;61199;47.526;8.538;2023-04-30T08:54:17;96507.78;;;16.37;59.25
73024;BME280;61199;47.526;8.538;2023-04-30T08:56:45;96510.44;;;16.37;59.10
73024;BME280;61199;47.526;8.538;2023-04-30T08:59:12;96514.50;;;16.56;58.49
73024;BME280;61199;47.526;8.538;2023-04-30T09:01:39;96514.38;;;16.17;59.58
73024;BME280;61199;47.526;8.538;2023-04-30T09:04:06;96503.78;;;16.33;58.97
73024;BME280;61199;47.526;8.538;2023-04-30T09:06:33;96504.31;;;16.37;58.47
73024;BME280;61199;47.526;8.538;2023-04-30T09:09:14;96510.06;;;16.24;58.71
73024;BME280;61199;47.526;8.538;2023-04-30T09:11:41;96504.63;;;16.50;58.32
73024;BME280;61199;47.526;8.538;2023-04-30T09:14:08;96505.75;;;16.63;58.79
73024;BME280;61199;47.526;8.538;2023-04-30T09:16:48;96502.25;;;16.71;57.75
73024;BME280;61199;47.526;8.538;2023-04-30T09:19:26;96505.38;;;16.74;57.57
73024;BME280;61199;47.526;8.538;2023-04-30T09:21:53;96492.78;;;16.84;57.11
73024;BME280;61199;47.526;8.538;2023-04-30T09:24:20;96497.44;;;16.74;57.86
73024;BME280;61199;47.526;8.538;2023-04-30T09:26:47;96495.75;;;16.89;57.40
73024;BME280;61199;47.526;8.538;2023-04-30T09:29:14;96493.75;;;16.91;56.74
73024;BME280;61199;47.526;8.538;2023-04-30T09:31:47;96491.25;;;16.90;56.61
73024;BME280;61199;47.526;8.538;2023-04-30T09:34:13;96486.47;;;16.93;56.61
73024;BME280;61199;47.526;8.538;2023-04-30T09:36:53;96496.09;;;16.78;56.53
73024;BME280;61199;47.526;8.538;2023-04-30T09:39:20;96474.56;;;16.89;56.66
73024;BME280;61199;47.526;8.538;2023-04-30T09:41:47;96490.47;;;16.89;56.53
73024;BME280;61199;47.526;8.538;2023-04-30T09:44:31;96479.34;;;16.94;55.77
73024;BME280;61199;47.526;8.538;2023-04-30T09:46:57;96478.34;;;16.95;55.80
73024;BME280;61199;47.526;8.538;2023-04-30T09:49:25;96482.97;;;16.93;56.03
73024;BME280;61199;47.526;8.538;2023-04-30T09:51:57;96476.66;;;17.02;55.90
73024;BME280;61199;47.526;8.538;2023-04-30T09:54:30;96480.44;;;17.07;55.27
73024;BME280;61199;47.526;8.538;2023-04-30T09:56:59;96476.88;;;16.92;54.80
73024;BME280;61199;47.526;8.538;2023-04-30T09:59:36;96477.81;;;17.07;54.72
73024;BME280;61199;47.526;8.538;2023-04-30T10:02:05;96478.69;;;17.22;54.43
73024;BME280;61199;47.526;8.538;2023-04-30T10:04:34;96461.78;;;17.31;54.19
73024;BME280;61199;47.526;8.538;2023-04-30T10:07:11;96464.00;;;17.50;54.79
73024;BME280;61199;47.526;8.538;2023-04-30T10:09:49;96458.22;;;17.47;54.19
73024;BME280;61199;47.526;8.538;2023-04-30T10:12:21;96453.72;;;17.55;53.09
73024;BME280;61199;47.526;8.538;2023-04-30T10:14:59;96463.13;;;17.80;52.42
73024;BME280;61199;47.526;8.538;2023-04-30T10:17:29;96456.41;;;17.92;52.45
73024;BME280;61199;47.526;8.538;2023-04-30T10:20:02;96449.25;;;17.92;51.87
73024;BME280;61199;47.526;8.538;2023-04-30T10:22:33;96448.44;;;17.92;51.25
73024;BME280;61199;47.526;8.538;2023-04-30T10:25:01;96443.28;;;17.76;51.97
73024;BME280;61199;47.526;8.538;2023-04-30T10:27:29;96443.94;;;17.92;51.88
73024;BME280;61199;47.526;8.538;2023-04-30T10:29:56;96446.19;;;18.03;51.84
73024;BME280;61199;47.526;8.538;2023-04-30T10:32:24;96433.13;;;18.16;51.73
73024;BME280;61199;47.526;8.538;2023-04-30T10:37:45;96427.00;;;18.53;51.29
73024;BME280;61199;47.526;8.538;2023-04-30T10:40:13;96430.69;;;18.29;51.81
73024;BME280;61199;47.526;8.538;2023-04-30T10:42:53;96431.66;;;18.14;51.69
73024;BME280;61199;47.526;8.538;2023-04-30T10:45:36;96428.06;;;18.07;51.49
73024;BME280;61199;47.526;8.538;2023-04-30T10:48:04;96425.00;;;18.18;52.29
73024;BME280;61199;47.526;8.538;2023-04-30T10:50:31;96420.56;;;18.33;51.43
73024;BME280;61199;47.526;8.538;2023-04-30T10:53:01;96407.84;;;18.57;51.30
73024;BME280;61199;47.526;8.538;2023-04-30T10:55:29;96408.41;;;18.67;49.92
73024;BME280;61199;47.526;8.538;2023-04-30T10:57:57;96411.97;;;18.31;50.30
73024;BME280;61199;47.526;8.538;2023-04-30T11:00:26;96398.44;;;18.40;50.10
73024;BME280;61199;47.526;8.538;2023-04-30T11:03:02;96406.94;;;18.50;49.66
73024;BME280;61199;47.526;8.538;2023-04-30T11:05:34;96405.09;;;18.51;49.96
73024;BME280;61199;47.526;8.538;2023-04-30T11:08:03;96416.56;;;18.37;50.45
73024;BME280;61199;47.526;8.538;2023-04-30T11:10:33;96408.31;;;18.32;49.78
73024;BME280;61199;47.526;8.538;2023-04-30T11:13:06;96405.84;;;18.30;50.25
73024;BME280;61199;47.526;8.538;2023-04-30T11:15:44;96416.63;;;18.29;49.19
73024;BME280;61199;47.526;8.538;2023-04-30T11:18:12;96416.56;;;18.37;49.45
73024;BME280;61199;47.526;8.538;2023-04-30T11:20:40;96419.44;;;18.71;49.38
73024;BME280;61199;47.526;8.538;2023-04-30T11:23:19;96400.78;;;18.79;48.89
73024;BME280;61199;47.526;8.538;2023-04-30T11:26:06;96409.09;;;18.90;47.65
73024;BME280;61199;47.526;8.538;2023-04-30T11:28:32;96403.50;;;19.00;47.20
73024;BME280;61199;47.526;8.538;2023-04-30T11:31:03;96400.50;;;18.88;47.59
73024;BME280;61199;47.526;8.538;2023-04-30T11:33:30;96402.72;;;19.20;47.52
73024;BME280;61199;47.526;8.538;2023-04-30T11:35:59;96404.72;;;19.33;46.98
73024;BME280;61199;47.526;8.538;2023-04-30T11:38:30;96406.09;;;19.50;45.71
73024;BME280;61199;47.526;8.538;2023-04-30T11:41:00;96403.19;;;19.24;46.46
73024;BME280;61199;47.526;8.538;2023-04-30T11:43:31;96409.50;;;19.23;47.32
73024;BME280;61199;47.526;8.538;2023-04-30T11:48:39;96406.38;;;19.76;45.95
73024;BME280;61199;47.526;8.538;2023-04-30T11:51:22;96411.78;;;19.89;45.75
73024;BME280;61199;47.526;8.538;2023-04-30T11:53:52;96405.69;;;19.95;45.33
73024;BME280;61199;47.526;8.538;2023-04-30T11:56:20;96396.69;;;20.17;45.51
73024;BME280;61199;47.526;8.538;2023-04-30T11:58:48;96401.09;;;20.31;44.80
73024;BME280;61199;47.526;8.538;2023-04-30T12:01:14;96403.34;;;20.34;44.80
73024;BME280;61199;47.526;8.538;2023-04-30T12:03:43;96391.78;;;20.48;44.54
73024;BME280;61199;47.526;8.538;2023-04-30T12:06:11;96395.06;;;20.50;44.39
73024;BME280;61199;47.526;8.538;2023-04-30T12:08:46;96391.84;;;20.61;44.10
73024;BME280;61199;47.526;8.538;2023-04-30T12:11:20;96395.50;;;20.53;43.83
73024;BME280;61199;47.526;8.538;2023-04-30T12:13:54;96391.84;;;20.61;43.11
73024;BME280;61199;47.526;8.538;2023-04-30T12:16:22;96387.78;;;20.65;43.89
73024;BME280;61199;47.526;8.538;2023-04-30T12:18:49;96385.34;;;20.70;43.86
73024;BME280;61199;47.526;8.538;2023-04-30T12:21:19;96395.13;;;20.63;43.78
73024;BME280;61199;47.526;8.538;2023-04-30T12:23:46;96389.34;;;20.53;44.19
73024;BME280;61199;47.526;8.538;2023-04-30T12:26:13;96384.84;;;20.53;44.47
73024;BME280;61199;47.526;8.538;2023-04-30T12:28:39;96381.59;;;20.58;43.81
73024;BME280;61199;47.526;8.538;2023-04-30T12:31:06;96371.28;;;20.42;43.79
73024;BME280;61199;47.526;8.538;2023-04-30T12:33:33;96383.25;;;20.25;44.71
73024;BME280;61199;47.526;8.538;2023-04-30T12:36:00;96385.25;;;19.95;44.44
73024;BME280;61199;47.526;8.538;2023-04-30T12:38:27;96377.59;;;20.07;44.37
73024;BME280;61199;47.526;8.538;2023-04-30T12:40:53;96380.16;;;20.00;44.99
73024;BME280;61199;47.526;8.538;2023-04-30T12:43:20;96393.25;;;19.74;45.13
73024;BME280;61199;47.526;8.538;2023-04-30T12:45:53;96387.84;;;19.89;45.08
73024;BME280;61199;47.526;8.538;2023-04-30T12:48:22;96387.34;;;19.79;44.61
73024;BME280;61199;47.526;8.538;2023-04-30T12:50:59;96390.59;;;19.95;44.75
73024;BME280;61199;47.526;8.538;2023-04-30T12:53:30;96386.91;;;19.96;44.69
73024;BME280;61199;47.526;8.538;2023-04-30T12:56:11;96391.38;;;19.96;45.38
73024;BME280;61199;47.526;8.538;2023-04-30T12:58:38;96381.63;;;20.03;44.68
73024;BME280;61199;47.526;8.538;2023-04-30T13:01:10;96377.66;;;20.13;44.92
73024;BME280;61199;47.526;8.538;2023-04-30T13:03:37;96374.06;;;20.27;44.01
73024;BME280;61199;47.526;8.538;2023-04-30T13:06:03;96372.22;;;20.28;43.63
73024;BME280;61199;47.526;8.538;2023-04-30T13:08:32;96375.03;;;19.99;43.83
73024;BME280;61199;47.526;8.538;2023-04-30T13:11:15;96377.69;;;20.20;43.67
73024;BME280;61199;47.526;8.538;2023-04-30T13:13:41;96370.03;;;20.38;43.75
73024;BME280;61199;47.526;8.538;2023-04-30T13:16:08;96366.34;;;20.39;43.33
73024;BME280;61199;47.526;8.538;2023-04-30T13:18:35;96368.00;;;20.40;43.76
73024;BME280;61199;47.526;8.538;2023-04-30T13:21:02;96367.59;;;20.43;44.72
73024;BME280;61199;47.526;8.538;2023-04-30T13:23:29;96364.78;;;20.51;43.94